sensor_id;sensor_type;location;lat;lon;timestamp;P1;durP1;ratioP1;P2;durP2;ratioP2
13832;SDS011;6987;19.472;-99.276;2024-03-22T00:00:11;14.27;;;5.72;;
13832;SDS011;6987;19.472;-99.276;2024-03-22T00:02:40;7.95;;;5.85;;
13832;SDS011;6987;19.472;-99.276;2024-03-22T00:05:07;6.57;;;5.85;;
13832;SDS011;6987;19.472;-99.276;2024-03-22T00:07:39;6.07;;;5.47;;
13832;SDS011;6987;19.472;-99.276;2024-03-22T00:10:06;7.90;;;6.03;;
13832;SDS011;6987;19.472;-99.276;2024-03-22T00:12:36;7.32;;;4.75;;
13832;SDS011;6987;19.472;-99.276;2024-03-22T00:15:04;9.48;;;4.95;;
13832;SDS011;6987;19.472;-99.276;2024-03-22T00:17:33;8.35;;;5.07;;
13832;SDS011;6987;19.472;-99.276;2024-03-22T00:20:01;9.77;;;5.45;;
13832;SDS011;6987;19.472;-99.276;2024-03-22T00:22:31;9.48;;;5.72;;
13832;SDS011;6987;19.472;-99.276;2024-03-22T00:25:00;12.75;;;5.65;;
13832;SDS011;6987;19.472;-99.276;2024-03-22T00:27:29;11.48;;;7.00;;
13832;SDS011;6987;19.472;-99.276;2024-03-22T00:29:57;11.50;;;6.35;;
13832;SDS011;6987;19.472;-99.276;2024-03-22T00:32:26;9.85;;;7.07;;
13832;SDS011;6987;19.472;-99.276;2024-03-22T00:34:54;10.55;;;7.43;;
13832;SDS011;6987;19.472;-99.276;2024-03-22T00:37:23;12.23;;;7.18;;
13832;SDS011;6987;19.472;-99.276;2024-03-22T00:39:50;16.15;;;8.52;;
13832;SDS011;6987;19.472;-99.276;2024-03-22T00:42:22;12.10;;;9.95;;
13832;SDS011;6987;19.472;-99.276;2024-03-22T00:44:49;15.38;;;11.30;;
13832;SDS011;6987;19.472;-99.276;2024-03-22T00:47:18;15.15;;;11.75;;
13832;SDS011;6987;19.472;-99.276;2024-03-22T00:49:46;20.20;;;13.55;;
13832;SDS011;6987;19.472;-99.276;2024-03-22T00:52:14;19.40;;;12.45;;
13832;SDS011;6987;19.472;-99.276;2024-03-22T00:54:42;12.93;;;11.15;;
13832;SDS011;6987;19.472;-99.276;2024-03-22T00:57:11;14.27;;;10.80;;
13832;SDS011;6987;19.472;-99.276;2024-03-22T00:59:41;21.85;;;11.30;;
13832;SDS011;6987;19.472;-99.276;2024-03-22T01:02:10;14.32;;;9.93;;
13832;SDS011;6987;19.472;-99.276;2024-03-22T01:04:38;12.63;;;9.75;;
13832;SDS011;6987;19.472;-99.276;2024-03-22T01:07:07;10.27;;;9.10;;
13832;SDS011;6987;19.472;-99.276;2024-03-22T01:09:34;12.35;;;8.48;;
13832;SDS011;6987;19.472;-99.276;2024-03-22T01:12:04;14.43;;;9.05;;
13832;SDS011;6987;19.472;-99.276;2024-03-22T01:14:31;12.65;;;8.13;;
13832;SDS011;6987;19.472;-99.276;2024-03-22T01:17:02;10.07;;;7.72;;
13832;SDS011;6987;19.472;-99.276;2024-03-22T01:19:30;9.60;;;6.88;;
13832;SDS011;6987;19.472;-99.276;2024-03-22T01:21:59;22.42;;;7.45;;
13832;SDS011;6987;19.472;-99.276;2024-03-22T01:24:26;12.98;;;7.70;;
13832;SDS011;6987;19.472;-99.276;2024-03-22T01:26:55;14.32;;;7.00;;
13832;SDS011;6987;19.472;-99.276;2024-03-22T01:29:23;10.93;;;6.93;;
13832;SDS011;6987;19.472;-99.276;2024-03-22T01:31:54;7.43;;;6.72;;
13832;SDS011;6987;19.472;-99.276;2024-03-22T01:34:23;13.63;;;7.18;;
13832;SDS011;6987;19.472;-99.276;2024-03-22T01:36:51;11.80;;;6.43;;
13832;SDS011;6987;19.472;-99.276;2024-03-22T01:39:19;21.25;;;7.85;;
13832;SDS011;6987;19.472;-99.276;2024-03-22T01:41:49;10.13;;;7.60;;
13832;SDS011;6987;19.472;-99.276;2024-03-22T01:44:17;12.95;;;6.68;;
13832;SDS011;6987;19.472;-99.276;2024-03-22T01:46:46;11.68;;;7.40;;
13832;SDS011;6987;19.472;-99.276;2024-03-22T01:49:15;12.27;;;7.28;;
13832;SDS011;6987;19.472;-99.276;2024-03-22T01:51:46;12.70;;;7.88;;
13832;SDS011;6987;19.472;-99.276;2024-03-22T01:54:14;9.77;;;7.82;;
13832;SDS011;6987;19.472;-99.276;2024-03-22T01:56:44;9.88;;;8.00;;
13832;SDS011;6987;19.472;-99.276;2024-03-22T01:59:11;13.38;;;8.10;;
13832;SDS011;6987;19.472;-99.276;2024-03-22T02:01:40;18.17;;;8.82;;
13832;SDS011;6987;19.472;-99.276;2024-03-22T02:04:08;11.95;;;8.80;;
13832;SDS011;6987;19.472;-99.276;2024-03-22T02:06:37;11.80;;;8.60;;
13832;SDS011;6987;19.472;-99.276;2024-03-22T02:09:06;12.98;;;9.38;;
13832;SDS011;6987;19.472;-99.276;2024-03-22T02:11:36;15.27;;;8.93;;
13832;SDS011;6987;19.472;-99.276;2024-03-22T02:14:03;12.32;;;9.73;;
13832;SDS011;6987;19.472;-99.276;2024-03-22T02:16:32;19.85;;;10.45;;
13832;SDS011;6987;19.472;-99.276;2024-03-22T02:19:00;19.00;;;10.43;;
13832;SDS011;6987;19.472;-99.276;2024-03-22T02:21:29;20.55;;;10.20;;
13832;SDS011;6987;19.472;-99.276;2024-03-22T02:23:59;14.73;;;10.02;;
13832;SDS011;6987;19.472;-99.276;2024-03-22T02:26:28;14.10;;;10.63;;
13832;SDS011;6987;19.472;-99.276;2024-03-22T02:28:55;23.90;;;11.13;;
13832;SDS011;6987;19.472;-99.276;2024-03-22T02:31:24;11.40;;;10.18;;
13832;SDS011;6987;19.472;-99.276;2024-03-22T02:33:52;18.02;;;10.10;;
13832;SDS011;6987;19.472;-99.276;2024-03-22T02:36:21;16.92;;;10.57;;
13832;SDS011;6987;19.472;-99.276;2024-03-22T02:38:48;18.48;;;10.13;;
13832;SDS011;6987;19.472;-99.276;2024-03-22T02:41:19;15.88;;;9.45;;
13832;SDS011;6987;19.472;-99.276;2024-03-22T02:43:46;15.50;;;10.32;;
13832;SDS011;6987;19.472;-99.276;2024-03-22T02:46:16;14.43;;;10.48;;
13832;SDS011;6987;19.472;-99.276;2024-03-22T02:48:43;11.82;;;10.32;;
13832;SDS011;6987;19.472;-99.276;2024-03-22T02:51:12;16.63;;;11.38;;
13832;SDS011;6987;19.472;-99.276;2024-03-22T02:53:40;17.05;;;9.65;;
13832;SDS011;6987;19.472;-99.276;2024-03-22T02:56:08;18.73;;;11.25;;
13832;SDS011;6987;19.472;-99.276;2024-03-22T02:58:38;13.75;;;10.70;;
13832;SDS011;6987;19.472;-99.276;2024-03-22T03:01:06;14.70;;;11.23;;
13832;SDS011;6987;19.472;-99.276;2024-03-22T03:03:34;19.08;;;10.82;;
13832;SDS011;6987;19.472;-99.276;2024-03-22T03:06:03;13.10;;;10.70;;
13832;SDS011;6987;19.472;-99.276;2024-03-22T03:08:31;14.75;;;10.98;;
13832;SDS011;6987;19.472;-99.276;2024-03-22T03:11:00;14.57;;;10.73;;
13832;SDS011;6987;19.472;-99.276;2024-03-22T03:13:28;15.43;;;11.25;;
13832;SDS011;6987;19.472;-99.276;2024-03-22T03:15:59;14.98;;;10.63;;
13832;SDS011;6987;19.472;-99.276;2024-03-22T03:18:26;13.18;;;10.77;;
13832;SDS011;6987;19.472;-99.276;2024-03-22T03:20:55;11.82;;;10.00;;
13832;SDS011;6987;19.472;-99.276;2024-03-22T03:23:23;19.00;;;11.45;;
13832;SDS011;6987;19.472;-99.276;2024-03-22T03:25:52;17.63;;;10.73;;
13832;SDS011;6987;19.472;-99.276;2024-03-22T03:28:19;16.58;;;11.48;;
13832;SDS011;6987;19.472;-99.276;2024-03-22T03:30:48;15.40;;;11.73;;
13832;SDS011;6987;19.472;-99.276;2024-03-22T03:33:17;15.98;;;11.00;;
13832;SDS011;6987;19.472;-99.276;2024-03-22T03:35:46;19.33;;;11.63;;
13832;SDS011;6987;19.472;-99.276;2024-03-22T03:38:13;15.25;;;12.77;;
13832;SDS011;6987;19.472;-99.276;2024-03-22T03:40:42;20.13;;;13.05;;
13832;SDS011;6987;19.472;-99.276;2024-03-22T03:43:09;19.90;;;12.98;;
13832;SDS011;6987;19.472;-99.276;2024-03-22T03:45:38;20.42;;;13.05;;
13832;SDS011;6987;19.472;-99.276;2024-03-22T03:48:06;20.58;;;13.85;;
13832;SDS011;6987;19.472;-99.276;2024-03-22T03:50:37;15.43;;;12.88;;
13832;SDS011;6987;19.472;-99.276;2024-03-22T03:53:05;20.48;;;14.43;;
13832;SDS011;6987;19.472;-99.276;2024-03-22T03:55:34;21.05;;;13.82;;
13832;SDS011;6987;19.472;-99.276;2024-03-22T03:58:01;16.35;;;13.77;;
13832;SDS011;6987;19.472;-99.276;2024-03-22T04:00:30;23.65;;;13.70;;
13832;SDS011;6987;19.472;-99.276;2024-03-22T04:02:58;16.88;;;12.75;;
13832;SDS011;6987;19.472;-99.276;2024-03-22T04:05:27;18.50;;;13.05;;
13832;SDS011;6987;19.472;-99.276;2024-03-22T04:07:56;15.50;;;12.65;;
13832;SDS011;6987;19.472;-99.276;2024-03-22T04:10:25;15.95;;;12.50;;
13832;SDS011;6987;19.472;-99.276;2024-03-22T04:12:53;14.85;;;12.15;;
13832;SDS011;6987;19.472;-99.276;2024-03-22T04:15:23;14.27;;;12.60;;
13832;SDS011;6987;19.472;-99.276;2024-03-22T04:17:50;13.70;;;12.30;;
13832;SDS011;6987;19.472;-99.276;2024-03-22T04:20:19;13.02;;;11.65;;
13832;SDS011;6987;19.472;-99.276;2024-03-22T04:22:47;17.65;;;11.65;;
13832;SDS011;6987;19.472;-99.276;2024-03-22T04:25:19;17.52;;;11.52;;
13832;SDS011;6987;19.472;-99.276;2024-03-22T04:27:47;13.27;;;10.25;;
13832;SDS011;6987;19.472;-99.276;2024-03-22T04:30:17;18.30;;;11.90;;
13832;SDS011;6987;19.472;-99.276;2024-03-22T04:32:45;15.32;;;10.60;;
13832;SDS011;6987;19.472;-99.276;2024-03-22T04:35:14;17.88;;;11.32;;
13832;SDS011;6987;19.472;-99.276;2024-03-22T04:37:42;13.25;;;10.68;;
13832;SDS011;6987;19.472;-99.276;2024-03-22T04:40:11;14.57;;;10.23;;
13832;SDS011;6987;19.472;-99.276;2024-03-22T04:42:42;12.20;;;9.98;;
13832;SDS011;6987;19.472;-99.276;2024-03-22T04:45:11;15.15;;;10.40;;
13832;SDS011;6987;19.472;-99.276;2024-03-22T04:47:40;15.45;;;10.70;;
13832;SDS011;6987;19.472;-99.276;2024-03-22T04:50:09;10.45;;;9.35;;
13832;SDS011;6987;19.472;-99.276;2024-03-22T04:52:39;12.50;;;10.13;;
13832;SDS011;6987;19.472;-99.276;2024-03-22T04:55:07;12.73;;;9.98;;
13832;SDS011;6987;19.472;-99.276;2024-03-22T04:57:36;12.32;;;8.98;;
13832;SDS011;6987;19.472;-99.276;2024-03-22T05:00:06;11.27;;;9.80;;
13832;SDS011;6987;19.472;-99.276;2024-03-22T05:02:36;14.35;;;10.00;;
13832;SDS011;6987;19.472;-99.276;2024-03-22T05:05:04;14.38;;;10.45;;
13832;SDS011;6987;19.472;-99.276;2024-03-22T05:07:33;13.60;;;9.73;;
13832;SDS011;6987;19.472;-99.276;2024-03-22T05:10:01;13.38;;;9.02;;
13832;SDS011;6987;19.472;-99.276;2024-03-22T05:12:31;12.10;;;8.85;;
13832;SDS011;6987;19.472;-99.276;2024-03-22T05:14:58;14.65;;;9.73;;
13832;SDS011;6987;19.472;-99.276;2024-03-22T05:17:29;13.55;;;9.27;;
13832;SDS011;6987;19.472;-99.276;2024-03-22T05:19:57;11.27;;;9.23;;
13832;SDS011;6987;19.472;-99.276;2024-03-22T05:22:27;12.10;;;8.75;;
13832;SDS011;6987;19.472;-99.276;2024-03-22T05:24:54;13.73;;;8.32;;
13832;SDS011;6987;19.472;-99.276;2024-03-22T05:27:23;16.92;;;8.45;;
13832;SDS011;6987;19.472;-99.276;2024-03-22T05:29:51;11.43;;;8.35;;
13832;SDS011;6987;19.472;-99.276;2024-03-22T05:32:20;11.63;;;7.82;;
13832;SDS011;6987;19.472;-99.276;2024-03-22T05:34:49;8.57;;;7.75;;
13832;SDS011;6987;19.472;-99.276;2024-03-22T05:37:18;7.90;;;7.20;;
13832;SDS011;6987;19.472;-99.276;2024-03-22T05:39:46;7.78;;;7.07;;
13832;SDS011;6987;19.472;-99.276;2024-03-22T05:42:16;8.40;;;7.45;;
13832;SDS011;6987;19.472;-99.276;2024-03-22T05:44:44;8.32;;;7.20;;
13832;SDS011;6987;19.472;-99.276;2024-03-22T05:47:13;10.52;;;7.57;;
13832;SDS011;6987;19.472;-99.276;2024-03-22T05:49:40;7.68;;;6.88;;
13832;SDS011;6987;19.472;-99.276;2024-03-22T05:52:11;8.23;;;6.97;;
13832;SDS011;6987;19.472;-99.276;2024-03-22T05:54:39;10.95;;;7.32;;
13832;SDS011;6987;19.472;-99.276;2024-03-22T05:57:08;6.97;;;6.30;;
13832;SDS011;6987;19.472;-99.276;2024-03-22T05:59:36;7.97;;;7.18;;
13832;SDS011;6987;19.472;-99.276;2024-03-22T06:02:05;8.70;;;7.60;;
13832;SDS011;6987;19.472;-99.276;2024-03-22T06:04:34;9.10;;;8.20;;
13832;SDS011;6987;19.472;-99.276;2024-03-22T06:07:02;8.10;;;7.32;;
13832;SDS011;6987;19.472;-99.276;2024-03-22T06:09:33;9.90;;;8.27;;
13832;SDS011;6987;19.472;-99.276;2024-03-22T06:12:03;10.90;;;8.18;;
13832;SDS011;6987;19.472;-99.276;2024-03-22T06:14:33;10.38;;;7.55;;
13832;SDS011;6987;19.472;-99.276;2024-03-22T06:17:00;10.60;;;7.93;;
13832;SDS011;6987;19.472;-99.276;2024-03-22T06:19:29;8.45;;;7.57;;
13832;SDS011;6987;19.472;-99.276;2024-03-22T06:21:56;10.05;;;8.40;;
13832;SDS011;6987;19.472;-99.276;2024-03-22T06:24:25;10.15;;;8.43;;
13832;SDS011;6987;19.472;-99.276;2024-03-22T06:26:54;12.27;;;8.15;;
13832;SDS011;6987;19.472;-99.276;2024-03-22T06:29:23;10.10;;;8.27;;
13832;SDS011;6987;19.472;-99.276;2024-03-22T06:31:51;12.15;;;8.13;;
13832;SDS011;6987;19.472;-99.276;2024-03-22T06:34:20;11.73;;;8.00;;
13832;SDS011;6987;19.472;-99.276;2024-03-22T06:36:47;8.65;;;7.43;;
13832;SDS011;6987;19.472;-99.276;2024-03-22T06:39:16;9.50;;;7.78;;
13832;SDS011;6987;19.472;-99.276;2024-03-22T06:41:44;8.60;;;7.70;;
13832;SDS011;6987;19.472;-99.276;2024-03-22T06:44:15;8.82;;;6.97;;
13832;SDS011;6987;19.472;-99.276;2024-03-22T06:46:43;6.97;;;6.28;;
13832;SDS011;6987;19.472;-99.276;2024-03-22T06:49:12;8.10;;;6.03;;
13832;SDS011;6987;19.472;-99.276;2024-03-22T06:51:39;9.95;;;6.32;;
13832;SDS011;6987;19.472;-99.276;2024-03-22T06:54:08;11.68;;;6.03;;
13832;SDS011;6987;19.472;-99.276;2024-03-22T06:56:35;7.88;;;5.63;;
13832;SDS011;6987;19.472;-99.276;2024-03-22T06:59:04;6.22;;;5.57;;
13832;SDS011;6987;19.472;-99.276;2024-03-22T07:01:33;6.53;;;5.93;;
13832;SDS011;6987;19.472;-99.276;2024-03-22T07:04:02;6.60;;;5.55;;
13832;SDS011;6987;19.472;-99.276;2024-03-22T07:06:29;5.35;;;4.85;;
13832;SDS011;6987;19.472;-99.276;2024-03-22T07:08:58;5.80;;;5.03;;
13832;SDS011;6987;19.472;-99.276;2024-03-22T07:11:26;7.28;;;5.40;;
13832;SDS011;6987;19.472;-99.276;2024-03-22T07:13:55;5.45;;;5.03;;
13832;SDS011;6987;19.472;-99.276;2024-03-22T07:16:23;6.75;;;5.57;;
13832;SDS011;6987;19.472;-99.276;2024-03-22T07:18:54;9.13;;;5.75;;
13832;SDS011;6987;19.472;-99.276;2024-03-22T07:21:23;6.97;;;5.55;;
13832;SDS011;6987;19.472;-99.276;2024-03-22T07:23:50;6.82;;;6.22;;
13832;SDS011;6987;19.472;-99.276;2024-03-22T07:26:19;7.00;;;5.63;;
13832;SDS011;6987;19.472;-99.276;2024-03-22T07:28:49;7.43;;;6.05;;
13832;SDS011;6987;19.472;-99.276;2024-03-22T07:31:16;7.00;;;6.35;;
13832;SDS011;6987;19.472;-99.276;2024-03-22T07:33:45;7.45;;;6.13;;
13832;SDS011;6987;19.472;-99.276;2024-03-22T07:36:15;6.80;;;6.10;;
13832;SDS011;6987;19.472;-99.276;2024-03-22T07:38:44;6.90;;;6.13;;
13832;SDS011;6987;19.472;-99.276;2024-03-22T07:41:12;7.47;;;6.63;;
13832;SDS011;6987;19.472;-99.276;2024-03-22T07:43:41;8.05;;;6.60;;
13832;SDS011;6987;19.472;-99.276;2024-03-22T07:46:08;8.35;;;6.82;;
13832;SDS011;6987;19.472;-99.276;2024-03-22T07:48:38;7.85;;;6.65;;
13832;SDS011;6987;19.472;-99.276;2024-03-22T07:51:05;9.43;;;7.25;;
13832;SDS011;6987;19.472;-99.276;2024-03-22T07:53:37;10.77;;;6.57;;
13832;SDS011;6987;19.472;-99.276;2024-03-22T07:56:05;8.27;;;7.25;;
13832;SDS011;6987;19.472;-99.276;2024-03-22T07:58:34;8.40;;;6.75;;
13832;SDS011;6987;19.472;-99.276;2024-03-22T08:01:01;7.63;;;6.82;;
13832;SDS011;6987;19.472;-99.276;2024-03-22T08:03:30;8.65;;;7.50;;
13832;SDS011;6987;19.472;-99.276;2024-03-22T08:05:58;8.93;;;7.00;;
13832;SDS011;6987;19.472;-99.276;2024-03-22T08:08:27;9.95;;;7.75;;
13832;SDS011;6987;19.472;-99.276;2024-03-22T08:10:57;7.47;;;6.68;;
13832;SDS011;6987;19.472;-99.276;2024-03-22T08:13:26;8.90;;;7.00;;
13832;SDS011;6987;19.472;-99.276;2024-03-22T08:15:53;8.90;;;6.72;;
13832;SDS011;6987;19.472;-99.276;2024-03-22T08:18:22;7.88;;;6.32;;
13832;SDS011;6987;19.472;-99.276;2024-03-22T08:20:49;9.38;;;6.57;;
13832;SDS011;6987;19.472;-99.276;2024-03-22T08:23:18;7.93;;;6.25;;
13832;SDS011;6987;19.472;-99.276;2024-03-22T08:25:46;6.93;;;6.30;;
13832;SDS011;6987;19.472;-99.276;2024-03-22T08:28:17;7.18;;;6.57;;
13832;SDS011;6987;19.472;-99.276;2024-03-22T08:30:44;7.40;;;6.60;;
13832;SDS011;6987;19.472;-99.276;2024-03-22T08:33:13;7.90;;;6.03;;
13832;SDS011;6987;19.472;-99.276;2024-03-22T08:35:41;9.55;;;6.75;;
13832;SDS011;6987;19.472;-99.276;2024-03-22T08:38:09;9.02;;;6.65;;
13832;SDS011;6987;19.472;-99.276;2024-03-22T08:40:40;7.53;;;6.70;;
13832;SDS011;6987;19.472;-99.276;2024-03-22T08:43:09;10.02;;;6.75;;
13832;SDS011;6987;19.472;-99.276;2024-03-22T08:45:38;8.73;;;5.97;;
13832;SDS011;6987;19.472;-99.276;2024-03-22T08:48:07;9.02;;;6.45;;
13832;SDS011;6987;19.472;-99.276;2024-03-22T08:50:34;6.63;;;5.88;;
13832;SDS011;6987;19.472;-99.276;2024-03-22T08:53:03;7.78;;;7.07;;
13832;SDS011;6987;19.472;-99.276;2024-03-22T08:55:32;10.32;;;6.55;;
13832;SDS011;6987;19.472;-99.276;2024-03-22T08:58:01;8.02;;;6.93;;
13832;SDS011;6987;19.472;-99.276;2024-03-22T09:00:29;7.30;;;6.57;;
13832;SDS011;6987;19.472;-99.276;2024-03-22T09:03:00;7.93;;;7.13;;
13832;SDS011;6987;19.472;-99.276;2024-03-22T09:05:27;8.13;;;6.13;;
13832;SDS011;6987;19.472;-99.276;2024-03-22T09:07:56;9.52;;;6.88;;
13832;SDS011;6987;19.472;-99.276;2024-03-22T09:10:23;7.13;;;6.38;;
13832;SDS011;6987;19.472;-99.276;2024-03-22T09:12:52;9.30;;;6.32;;
13832;SDS011;6987;19.472;-99.276;2024-03-22T09:15:19;6.38;;;5.78;;
13832;SDS011;6987;19.472;-99.276;2024-03-22T09:17:48;8.68;;;6.47;;
13832;SDS011;6987;19.472;-99.276;2024-03-22T09:20:17;8.70;;;7.03;;
13832;SDS011;6987;19.472;-99.276;2024-03-22T09:22:46;6.75;;;6.15;;
13832;SDS011;6987;19.472;-99.276;2024-03-22T09:25:14;6.82;;;6.22;;
13832;SDS011;6987;19.472;-99.276;2024-03-22T09:27:44;9.88;;;7.13;;
13832;SDS011;6987;19.472;-99.276;2024-03-22T09:30:12;9.98;;;6.68;;
13832;SDS011;6987;19.472;-99.276;2024-03-22T09:32:41;7.80;;;6.45;;
13832;SDS011;6987;19.472;-99.276;2024-03-22T09:35:08;10.20;;;6.78;;
13832;SDS011;6987;19.472;-99.276;2024-03-22T09:37:41;9.23;;;6.90;;
13832;SDS011;6987;19.472;-99.276;2024-03-22T09:40:09;7.60;;;6.38;;
13832;SDS011;6987;19.472;-99.276;2024-03-22T09:42:39;14.57;;;7.05;;
13832;SDS011;6987;19.472;-99.276;2024-03-22T09:45:08;9.88;;;6.38;;
13832;SDS011;6987;19.472;-99.276;2024-03-22T09:47:38;10.95;;;6.82;;
13832;SDS011;6987;19.472;-99.276;2024-03-22T09:50:06;12.13;;;6.88;;
13832;SDS011;6987;19.472;-99.276;2024-03-22T09:52:36;11.57;;;6.85;;
13832;SDS011;6987;19.472;-99.276;2024-03-22T09:55:07;9.82;;;7.70;;
13832;SDS011;6987;19.472;-99.276;2024-03-22T09:57:38;9.80;;;7.28;;
13832;SDS011;6987;19.472;-99.276;2024-03-22T10:00:06;11.18;;;7.40;;
13832;SDS011;6987;19.472;-99.276;2024-03-22T10:02:39;7.78;;;6.97;;
13832;SDS011;6987;19.472;-99.276;2024-03-22T10:05:07;8.88;;;6.88;;
13832;SDS011;6987;19.472;-99.276;2024-03-22T10:07:36;8.27;;;7.32;;
13832;SDS011;6987;19.472;-99.276;2024-03-22T10:10:04;13.57;;;8.68;;
13832;SDS011;6987;19.472;-99.276;2024-03-22T10:12:38;13.52;;;8.45;;
13832;SDS011;6987;19.472;-99.276;2024-03-22T10:15:05;11.73;;;8.93;;
13832;SDS011;6987;19.472;-99.276;2024-03-22T10:17:37;15.88;;;8.02;;
13832;SDS011;6987;19.472;-99.276;2024-03-22T10:20:05;10.80;;;7.53;;
13832;SDS011;6987;19.472;-99.276;2024-03-22T10:22:38;10.00;;;7.85;;
13832;SDS011;6987;19.472;-99.276;2024-03-22T10:25:08;14.18;;;8.10;;
13832;SDS011;6987;19.472;-99.276;2024-03-22T10:27:40;9.85;;;7.97;;
13832;SDS011;6987;19.472;-99.276;2024-03-22T10:30:08;10.95;;;7.72;;
13832;SDS011;6987;19.472;-99.276;2024-03-22T10:32:37;8.95;;;7.88;;
13832;SDS011;6987;19.472;-99.276;2024-03-22T10:35:05;10.90;;;8.05;;
13832;SDS011;6987;19.472;-99.276;2024-03-22T10:37:34;11.90;;;9.32;;
13832;SDS011;6987;19.472;-99.276;2024-03-22T10:40:02;10.95;;;8.90;;
13832;SDS011;6987;19.472;-99.276;2024-03-22T10:42:34;11.07;;;8.43;;
13832;SDS011;6987;19.472;-99.276;2024-03-22T10:45:03;14.02;;;9.52;;
13832;SDS011;6987;19.472;-99.276;2024-03-22T10:47:32;12.75;;;9.20;;
13832;SDS011;6987;19.472;-99.276;2024-03-22T10:50:02;11.13;;;8.80;;
13832;SDS011;6987;19.472;-99.276;2024-03-22T10:52:33;15.30;;;8.77;;
13832;SDS011;6987;19.472;-99.276;2024-03-22T10:55:02;14.73;;;10.15;;
13832;SDS011;6987;19.472;-99.276;2024-03-22T10:57:32;14.48;;;9.10;;
13832;SDS011;6987;19.472;-99.276;2024-03-22T11:00:04;15.52;;;8.73;;
13832;SDS011;6987;19.472;-99.276;2024-03-22T11:02:37;14.25;;;9.02;;
13832;SDS011;6987;19.472;-99.276;2024-03-22T11:05:05;10.15;;;8.32;;
13832;SDS011;6987;19.472;-99.276;2024-03-22T11:07:35;12.80;;;9.05;;
13832;SDS011;6987;19.472;-99.276;2024-03-22T11:10:03;10.82;;;8.38;;
13832;SDS011;6987;19.472;-99.276;2024-03-22T11:12:32;11.75;;;8.77;;
13832;SDS011;6987;19.472;-99.276;2024-03-22T11:14:59;11.15;;;8.45;;
13832;SDS011;6987;19.472;-99.276;2024-03-22T11:17:30;14.02;;;8.77;;
13832;SDS011;6987;19.472;-99.276;2024-03-22T11:19:57;12.88;;;8.70;;
13832;SDS011;6987;19.472;-99.276;2024-03-22T11:22:26;10.70;;;9.18;;
13832;SDS011;6987;19.472;-99.276;2024-03-22T11:24:54;11.27;;;8.70;;
13832;SDS011;6987;19.472;-99.276;2024-03-22T11:27:23;13.10;;;8.88;;
13832;SDS011;6987;19.472;-99.276;2024-03-22T11:29:52;11.30;;;8.93;;
13832;SDS011;6987;19.472;-99.276;2024-03-22T11:32:20;12.00;;;9.27;;
13832;SDS011;6987;19.472;-99.276;2024-03-22T11:34:50;12.95;;;8.82;;
13832;SDS011;6987;19.472;-99.276;2024-03-22T11:37:19;11.80;;;9.65;;
13832;SDS011;6987;19.472;-99.276;2024-03-22T11:39:46;12.43;;;9.70;;
13832;SDS011;6987;19.472;-99.276;2024-03-22T11:42:15;9.55;;;8.65;;
13832;SDS011;6987;19.472;-99.276;2024-03-22T11:44:44;12.57;;;9.32;;
13832;SDS011;6987;19.472;-99.276;2024-03-22T11:47:14;15.32;;;9.00;;
13832;SDS011;6987;19.472;-99.276;2024-03-22T11:49:42;12.00;;;9.32;;
13832;SDS011;6987;19.472;-99.276;2024-03-22T11:52:13;10.27;;;9.27;;
13832;SDS011;6987;19.472;-99.276;2024-03-22T11:54:42;13.40;;;9.77;;
13832;SDS011;6987;19.472;-99.276;2024-03-22T11:57:11;11.95;;;9.75;;
13832;SDS011;6987;19.472;-99.276;2024-03-22T11:59:40;15.50;;;10.32;;
13832;SDS011;6987;19.472;-99.276;2024-03-22T12:02:09;14.10;;;10.43;;
13832;SDS011;6987;19.472;-99.276;2024-03-22T12:04:40;11.55;;;10.00;;
13832;SDS011;6987;19.472;-99.276;2024-03-22T12:07:10;14.63;;;12.00;;
13832;SDS011;6987;19.472;-99.276;2024-03-22T12:09:40;15.02;;;11.82;;
13832;SDS011;6987;19.472;-99.276;2024-03-22T12:12:10;21.42;;;12.20;;
13832;SDS011;6987;19.472;-99.276;2024-03-22T12:14:38;12.55;;;11.25;;
13832;SDS011;6987;19.472;-99.276;2024-03-22T12:17:07;16.58;;;11.82;;
13832;SDS011;6987;19.472;-99.276;2024-03-22T12:19:35;13.98;;;11.23;;
13832;SDS011;6987;19.472;-99.276;2024-03-22T12:22:04;13.75;;;11.63;;
13832;SDS011;6987;19.472;-99.276;2024-03-22T12:24:32;13.68;;;11.65;;
13832;SDS011;6987;19.472;-99.276;2024-03-22T12:27:02;16.13;;;11.85;;
13832;SDS011;6987;19.472;-99.276;2024-03-22T12:29:32;12.52;;;10.68;;
13832;SDS011;6987;19.472;-99.276;2024-03-22T12:32:00;13.02;;;10.80;;
13832;SDS011;6987;19.472;-99.276;2024-03-22T12:34:29;18.17;;;12.02;;
13832;SDS011;6987;19.472;-99.276;2024-03-22T12:36:58;16.05;;;11.70;;
13832;SDS011;6987;19.472;-99.276;2024-03-22T12:39:26;14.98;;;11.57;;
13832;SDS011;6987;19.472;-99.276;2024-03-22T12:41:55;14.15;;;10.80;;
13832;SDS011;6987;19.472;-99.276;2024-03-22T12:44:24;15.35;;;11.90;;
13832;SDS011;6987;19.472;-99.276;2024-03-22T12:46:53;14.27;;;11.00;;
13832;SDS011;6987;19.472;-99.276;2024-03-22T12:49:21;21.60;;;12.13;;
13832;SDS011;6987;19.472;-99.276;2024-03-22T12:51:50;17.33;;;10.90;;
13832;SDS011;6987;19.472;-99.276;2024-03-22T12:54:18;20.58;;;12.32;;
13832;SDS011;6987;19.472;-99.276;2024-03-22T12:56:47;20.20;;;10.98;;
13832;SDS011;6987;19.472;-99.276;2024-03-22T12:59:14;13.80;;;10.85;;
13832;SDS011;6987;19.472;-99.276;2024-03-22T13:01:45;18.60;;;11.18;;
13832;SDS011;6987;19.472;-99.276;2024-03-22T13:04:13;15.55;;;11.15;;
13832;SDS011;6987;19.472;-99.276;2024-03-22T13:06:43;12.05;;;10.85;;
13832;SDS011;6987;19.472;-99.276;2024-03-22T13:09:10;18.42;;;10.43;;
13832;SDS011;6987;19.472;-99.276;2024-03-22T13:11:39;13.43;;;11.15;;
13832;SDS011;6987;19.472;-99.276;2024-03-22T13:14:07;26.77;;;11.85;;
13832;SDS011;6987;19.472;-99.276;2024-03-22T13:16:37;19.90;;;11.63;;
13832;SDS011;6987;19.472;-99.276;2024-03-22T13:19:06;23.40;;;12.60;;
13832;SDS011;6987;19.472;-99.276;2024-03-22T13:21:38;17.38;;;11.27;;
13832;SDS011;6987;19.472;-99.276;2024-03-22T13:24:05;17.45;;;11.52;;
13832;SDS011;6987;19.472;-99.276;2024-03-22T13:26:34;18.48;;;11.50;;
13832;SDS011;6987;19.472;-99.276;2024-03-22T13:29:01;29.20;;;13.00;;
13832;SDS011;6987;19.472;-99.276;2024-03-22T13:31:31;24.60;;;12.88;;
13832;SDS011;6987;19.472;-99.276;2024-03-22T13:33:58;26.13;;;13.10;;
13832;SDS011;6987;19.472;-99.276;2024-03-22T13:36:28;27.15;;;13.30;;
13832;SDS011;6987;19.472;-99.276;2024-03-22T13:38:58;25.63;;;12.63;;
13832;SDS011;6987;19.472;-99.276;2024-03-22T13:41:27;24.45;;;12.73;;
13832;SDS011;6987;19.472;-99.276;2024-03-22T13:43:55;16.65;;;12.07;;
13832;SDS011;6987;19.472;-99.276;2024-03-22T13:46:24;12.77;;;10.73;;
13832;SDS011;6987;19.472;-99.276;2024-03-22T13:48:51;15.95;;;11.68;;
13832;SDS011;6987;19.472;-99.276;2024-03-22T13:51:21;19.77;;;12.52;;
13832;SDS011;6987;19.472;-99.276;2024-03-22T13:53:52;17.70;;;12.85;;
13832;SDS011;6987;19.472;-99.276;2024-03-22T13:56:21;25.77;;;14.48;;
13832;SDS011;6987;19.472;-99.276;2024-03-22T13:58:48;22.42;;;14.50;;
13832;SDS011;6987;19.472;-99.276;2024-03-22T14:01:17;20.63;;;14.02;;
13832;SDS011;6987;19.472;-99.276;2024-03-22T14:03:44;21.13;;;14.18;;
13832;SDS011;6987;19.472;-99.276;2024-03-22T14:06:14;27.63;;;15.82;;
13832;SDS011;6987;19.472;-99.276;2024-03-22T14:08:44;25.98;;;17.35;;
13832;SDS011;6987;19.472;-99.276;2024-03-22T14:11:15;22.15;;;17.15;;
13832;SDS011;6987;19.472;-99.276;2024-03-22T14:13:43;26.65;;;17.83;;
13832;SDS011;6987;19.472;-99.276;2024-03-22T14:16:12;25.90;;;17.27;;
13832;SDS011;6987;19.472;-99.276;2024-03-22T14:18:39;23.83;;;16.98;;
13832;SDS011;6987;19.472;-99.276;2024-03-22T14:21:09;27.35;;;16.70;;
13832;SDS011;6987;19.472;-99.276;2024-03-22T14:23:40;30.67;;;16.80;;
13832;SDS011;6987;19.472;-99.276;2024-03-22T14:26:08;25.30;;;15.30;;
13832;SDS011;6987;19.472;-99.276;2024-03-22T14:28:38;20.92;;;16.10;;